Time;durP1;ratioP1;P1;durP2;ratioP2;P2;SDS_P1;SDS_P2;PMS_P1;PMS_P2;Temp;Humidity;BMP_temperature;BMP_pressure;BME280_temperature;BME280_humidity;BME280_pressure;Samples;Min_cycle;Max_cycle;Signal;HPM_P1;HPM_P2
2023/08/04 00:01:00;;;;;;;0.30;0.30;;;21.60;58.30;;;;;;5051724;28;20418;-80
2023/08/04 00:03:27;;;;;;;;;;;21.70;58.40;;;;;;5052768;28;20433;-80
2023/08/04 00:05:53;;;;;;;0.32;0.20;;;21.60;58.00;;;;;;5051642;28;20054;-73
2023/08/04 00:08:19;;;;;;;;;;;21.60;58.50;;;;;;5052819;28;20090;-73
2023/08/04 00:10:45;;;;;;;0.15;0.15;;;21.50;58.70;;;;;;5051641;28;20401;-77
2023/08/04 00:13:11;;;;;;;;;;;21.40;59.10;;;;;;5036090;28;20044;-80
2023/08/04 00:15:39;;;;;;;0.57;0.20;;;21.40;59.10;;;;;;5051365;28;19917;-74
2023/08/04 00:18:08;;;;;;;0.10;0.10;;;21.40;59.70;;;;;;5052001;28;20533;-80
2023/08/04 00:20:34;;;;;;;0.63;0.52;;;21.30;60.00;;;;;;5071942;28;20059;-74
2023/08/04 00:23:00;;;;;;;;;;;21.30;60.30;;;;;;5097337;28;20039;-74
2023/08/04 00:25:26;;;;;;;0.15;0.15;;;21.30;60.00;;;;;;5096194;28;19919;-79
2023/08/04 00:27:52;;;;;;;0.55;0.40;;;21.30;60.30;;;;;;5115320;28;20035;-80
2023/08/04 00:30:31;;;;;;;;;;;;;;;;;;;;;
2023/08/04 00:33:01;;;;;;;0.25;0.20;;;21.30;60.50;;;;;;5114714;28;20488;-73
2023/08/04 00:35:29;;;;;;;3.72;0.52;;;21.30;60.90;;;;;;5114129;28;20404;-80
2023/08/04 00:37:55;;;;;;;0.35;0.35;;;21.30;60.90;;;;;;5115113;28;20039;-80
2023/08/04 00:40:21;;;;;;;;;;;21.20;60.90;;;;;;5114694;28;20036;-74
2023/08/04 00:43:07;;;;;;;0.17;0.17;;;21.20;61.00;;;;;;5114242;28;19915;-79
2023/08/04 00:45:34;;;;;;;0.17;0.17;;;21.20;61.80;;;;;;5050835;28;20662;-80
2023/08/04 00:48:01;;;;;;;0.10;0.10;;;21.10;61.80;;;;;;5034616;28;20462;-74
2023/08/04 00:50:29;;;;;;;0.30;0.30;;;21.00;61.80;;;;;;5034440;28;20502;-79
2023/08/04 00:52:56;;;;;;;1.50;1.08;;;21.10;62.00;;;;;;5034577;28;20048;-74
2023/08/04 00:55:22;;;;;;;0.25;0.25;;;21.00;62.20;;;;;;5050526;28;20032;-74
2023/08/04 00:57:49;;;;;;;0.10;0.10;;;21.00;62.40;;;;;;5034668;28;20037;-74
2023/08/04 01:00:15;;;;;;;0.17;0.17;;;21.00;62.70;;;;;;5034032;28;20145;-74
2023/08/04 01:02:41;;;;;;;;;;;21.00;63.00;;;;;;5033610;28;20517;-80
2023/08/04 01:05:08;;;;;;;0.13;0.13;;;21.00;62.80;;;;;;5034115;28;19923;-79
2023/08/04 01:08:31;;;;;;;0.17;0.17;;;20.90;63.50;;;;;;5017881;28;20033;-80
2023/08/04 01:11:20;;;;;;;1.38;0.55;;;20.90;63.10;;;;;;5050509;28;20095;-74
2023/08/04 01:13:48;;;;;;;0.13;0.13;;;20.90;63.50;;;;;;5034138;28;20043;-80
2023/08/04 01:16:14;;;;;;;0.30;0.30;;;20.80;63.20;;;;;;5033769;28;20079;-79
2023/08/04 01:18:40;;;;;;;0.30;0.25;;;20.80;63.10;;;;;;5034007;28;20080;-74
2023/08/04 01:21:06;;;;;;;0.45;0.45;;;20.80;64.30;;;;;;5050162;28;20119;-79
2023/08/04 01:23:33;;;;;;;1.02;0.93;;;20.70;64.40;;;;;;5104930;28;20096;-79
2023/08/04 01:26:02;;;;;;;0.63;0.47;;;20.70;64.70;;;;;;5113453;28;20032;-79
2023/08/04 01:28:29;;;;;;;0.10;0.10;;;20.60;64.90;;;;;;5095393;28;20373;-74
2023/08/04 01:30:57;;;;;;;0.95;0.60;;;20.60;65.00;;;;;;5094922;28;20051;-80
2023/08/04 01:33:23;;;;;;;0.28;0.28;;;20.60;64.90;;;;;;5091818;28;20116;-80
2023/08/04 01:35:53;;;;;;;0.17;0.15;;;20.60;65.00;;;;;;5091560;28;20473;-73
2023/08/04 01:38:19;;;;;;;0.28;0.28;;;20.50;64.90;;;;;;5091946;28;20032;-79
2023/08/04 01:40:48;;;;;;;;;;;20.60;65.00;;;;;;5093294;28;20032;-74
2023/08/04 01:43:14;;;;;;;0.25;0.22;;;20.50;64.90;;;;;;5092999;28;19916;-73
2023/08/04 01:45:40;;;;;;;;;;;20.50;65.10;;;;;;5093115;28;20031;-77
2023/08/04 01:48:09;;;;;;;0.52;0.38;;;20.40;64.70;;;;;;5091854;28;20032;-74
2023/08/04 01:50:35;;;;;;;1.23;0.40;;;20.40;65.20;;;;;;5092885;28;20102;-74
2023/08/04 01:53:04;;;;;;;0.20;0.20;;;20.30;65.10;;;;;;5092939;28;20036;-80
2023/08/04 01:55:48;;;;;;;0.38;0.30;;;20.30;65.10;;;;;;5108286;28;20032;-79
2023/08/04 01:58:15;;;;;;;0.10;0.10;;;20.30;65.20;;;;;;5091641;28;20040;-74
2023/08/04 02:00:41;;;;;;;0.20;0.20;;;20.30;65.60;;;;;;5091241;28;20391;-80
2023/08/04 02:03:29;;;;;;;0.10;0.10;;;20.20;65.80;;;;;;5091203;28;20032;-75
2023/08/04 02:06:01;;;;;;;0.28;0.20;;;20.20;65.80;;;;;;5092377;28;20028;-79
2023/08/04 02:08:27;;;;;;;0.10;0.10;;;20.20;65.90;;;;;;5091432;28;20042;-80
2023/08/04 02:11:02;;;;;;;;;;;;;;;;;;;;;
2023/08/04 02:13:39;;;;;;;0.80;0.25;;;20.20;65.40;;;;;;5090707;28;19920;-73
2023/08/04 02:16:05;;;;;;;0.38;0.17;;;20.20;65.60;;;;;;5090867;28;20028;-79
2023/08/04 02:18:33;;;;;;;0.65;0.65;;;20.20;65.80;;;;;;5074574;28;20153;-80
2023/08/04 02:20:59;;;;;;;0.38;0.35;;;20.20;66.10;;;;;;5090870;28;20036;-74
2023/08/04 02:23:42;;;;;;;;;;;20.20;66.10;;;;;;5093186;28;20032;-80
2023/08/04 02:26:26;;;;;;;0.57;0.52;;;20.20;65.70;;;;;;5091700;28;19969;-73
2023/08/04 02:28:54;;;;;;;0.20;0.20;;;20.20;66.20;;;;;;5092642;28;20044;-74
2023/08/04 02:31:23;;;;;;;0.25;0.17;;;20.10;66.70;;;;;;5090666;28;20089;-74
2023/08/04 02:33:49;;;;;;;0.10;0.10;;;20.00;67.30;;;;;;5090833;28;20044;-80
2023/08/04 02:36:17;;;;;;;0.17;0.17;;;20.00;66.80;;;;;;5073898;28;20040;-80
2023/08/04 02:38:43;;;;;;;0.20;0.20;;;20.00;67.50;;;;;;5092333;28;20362;-74
2023/08/04 02:44:13;;;;;;;0.40;0.40;;;20.00;67.40;;;;;;5092577;28;20051;-80
2023/08/04 02:46:39;;;;;;;0.20;0.15;;;20.00;67.40;;;;;;5090688;28;20036;-73
2023/08/04 02:49:13;;;;;;;0.10;0.10;;;20.00;67.50;;;;;;5092417;28;20228;-73
2023/08/04 02:51:39;;;;;;;0.10;0.10;;;20.00;67.50;;;;;;5090622;28;20078;-74
2023/08/04 02:54:04;;;;;;;;;;;20.00;67.50;;;;;;5091778;28;20411;-80
2023/08/04 02:56:30;;;;;;;0.10;0.10;;;19.90;67.40;;;;;;5090714;28;19930;-73
2023/08/04 02:58:56;;;;;;;1.20;0.47;;;19.90;67.60;;;;;;5092553;28;20024;-73
2023/08/04 03:01:22;;;;;;;;;;;19.90;67.80;;;;;;5090758;28;20450;-80
2023/08/04 03:04:03;;;;;;;0.22;0.22;;;19.80;67.30;;;;;;5092405;28;19912;-74
2023/08/04 03:06:29;;;;;;;0.20;0.20;;;19.80;67.50;;;;;;5091787;28;20544;-80
2023/08/04 03:08:58;;;;;;;2.72;0.65;;;19.80;67.90;;;;;;5092034;28;20032;-80
2023/08/04 03:11:27;;;;;;;0.73;0.57;;;19.80;67.90;;;;;;5091925;28;20093;-73
2023/08/04 03:14:00;;;;;;;0.10;0.10;;;19.80;67.80;;;;;;5092006;28;20044;-77
2023/08/04 03:16:29;;;;;;;0.52;0.50;;;19.80;67.90;;;;;;5090291;28;20077;-73
2023/08/04 03:18:58;;;;;;;0.20;0.20;;;19.70;68.90;;;;;;5092260;28;20068;-79
2023/08/04 03:21:26;;;;;;;0.17;0.17;;;19.60;68.10;;;;;;5091569;28;20070;-73
2023/08/04 03:23:55;;;;;;;0.10;0.10;;;19.50;68.20;;;;;;5090674;28;20028;-79
2023/08/04 03:26:21;;;;;;;0.50;0.30;;;19.50;68.30;;;;;;5094289;28;20124;-80
2023/08/04 03:28:47;;;;;;;0.20;0.20;;;19.40;68.50;;;;;;5094500;28;20032;-74
2023/08/04 03:31:13;;;;;;;;;;;19.30;68.90;;;;;;5095887;28;20063;-74
2023/08/04 03:33:39;;;;;;;0.20;0.20;;;19.30;68.60;;;;;;5093960;28;19916;-74
2023/08/04 03:36:05;;;;;;;0.75;0.32;;;19.20;68.60;;;;;;5095273;28;20028;-74
2023/08/04 03:38:34;;;;;;;0.98;0.75;;;19.20;68.80;;;;;;5095379;28;20040;-74
2023/08/04 03:41:03;;;;;;;0.70;0.52;;;19.30;68.70;;;;;;5093622;28;20040;-78
2023/08/04 03:43:29;;;;;;;0.20;0.10;;;19.30;68.70;;;;;;5095139;28;20036;-74
2023/08/04 03:46:00;;;;;;;0.52;0.40;;;19.30;68.60;;;;;;5095219;28;20370;-79
2023/08/04 03:49:11;;;;;;;0.50;0.40;;;19.40;68.60;;;;;;5094113;28;20067;-80
2023/08/04 03:51:37;;;;;;;0.90;0.47;;;19.40;68.50;;;;;;5092598;28;20126;-79
2023/08/04 03:54:04;;;;;;;1.10;0.22;;;19.30;68.60;;;;;;5095132;28;20032;-73
2023/08/04 03:56:31;;;;;;;0.75;0.38;;;19.30;68.70;;;;;;5093476;28;20036;-79
2023/08/04 03:58:56;;;;;;;;;;;19.30;68.80;;;;;;5095532;28;20399;-73
2023/08/04 04:01:40;;;;;;;0.80;0.25;;;19.20;68.80;;;;;;5093254;28;19916;-74
2023/08/04 04:04:11;;;;;;;0.32;0.32;;;19.20;68.90;;;;;;5093656;28;20040;-73
2023/08/04 04:06:37;;;;;;;0.10;0.10;;;19.20;69.00;;;;;;5093265;28;20037;-78
2023/08/04 04:09:03;;;;;;;;;;;19.20;68.90;;;;;;5094067;28;20114;-79
2023/08/04 04:11:30;;;;;;;0.10;0.10;;;19.30;68.70;;;;;;5093313;28;19938;-79
2023/08/04 04:13:55;;;;;;;;;;;19.30;69.50;;;;;;5094012;28;20044;-79
2023/08/04 04:16:22;;;;;;;0.10;0.10;;;19.30;68.50;;;;;;5093160;28;19977;-74
2023/08/04 04:18:48;;;;;;;0.45;0.35;;;19.40;68.60;;;;;;5093586;28;20078;-73
2023/08/04 04:21:14;;;;;;;0.35;0.25;;;19.30;69.00;;;;;;5094101;28;20492;-78
2023/08/04 04:24:00;;;;;;;0.50;0.30;;;19.30;69.80;;;;;;5076681;28;20097;-73
2023/08/04 04:26:26;;;;;;;0.10;0.10;;;19.20;69.80;;;;;;5093823;28;20044;-73
2023/08/04 04:28:52;;;;;;;0.60;0.20;;;19.20;70.00;;;;;;5094967;28;20535;-73
2023/08/04 04:31:18;;;;;;;0.38;0.38;;;19.20;70.00;;;;;;5092434;28;20040;-78
2023/08/04 04:33:44;;;;;;;0.45;0.35;;;19.20;69.90;;;;;;5092882;28;20047;-79
2023/08/04 04:36:10;;;;;;;0.20;0.20;;;19.20;69.60;;;;;;5092190;28;20036;-79
2023/08/04 04:38:47;;;;;;;0.30;0.28;;;19.30;69.60;;;;;;5094266;28;20087;-78
2023/08/04 04:41:13;;;;;;;0.17;0.17;;;19.30;69.30;;;;;;5092540;28;20044;-78
2023/08/04 04:43:39;;;;;;;;;;;19.40;69.40;;;;;;5093339;28;20040;-78
2023/08/04 04:46:26;;;;;;;0.10;0.10;;;19.40;69.40;;;;;;5092309;28;19916;-79
2023/08/04 04:48:51;;;;;;;0.10;0.10;;;19.50;69.60;;;;;;5094266;28;20047;-79
2023/08/04 04:51:20;;;;;;;;;;;19.60;69.20;;;;;;5094326;28;20040;-78
2023/08/04 04:53:48;;;;;;;0.10;0.10;;;19.70;69.00;;;;;;5092833;28;19969;-73
2023/08/04 04:56:14;;;;;;;0.22;0.22;;;19.80;68.90;;;;;;5092393;28;20115;-78
2023/08/04 04:58:40;;;;;;;;;;;19.80;69.20;;;;;;5092826;28;20036;-79
2023/08/04 05:01:10;;;;;;;0.10;0.10;;;19.80;69.00;;;;;;5109120;28;19916;-79
2023/08/04 05:03:36;;;;;;;0.20;0.20;;;19.90;68.50;;;;;;5109618;28;20032;-73
2023/08/04 05:06:02;;;;;;;;;;;20.10;68.50;;;;;;5093878;28;20381;-79
2023/08/04 05:08:28;;;;;;;0.30;0.20;;;20.10;68.00;;;;;;5109428;28;20365;-79
2023/08/04 05:10:57;;;;;;;;;;;20.30;68.00;;;;;;5092758;28;20117;-73
2023/08/04 05:13:26;;;;;;;1.35;0.20;;;20.50;67.80;;;;;;5092552;28;19916;-75
2023/08/04 05:15:52;;;;;;;0.10;0.10;;;20.60;67.40;;;;;;5091783;28;20071;-73
2023/08/04 05:18:18;;;;;;;;;;;20.70;67.50;;;;;;5093092;28;20039;-77
2023/08/04 05:20:46;;;;;;;0.98;0.77;;;20.70;67.00;;;;;;5093136;28;20368;-73
2023/08/04 05:23:12;;;;;;;0.40;0.20;;;20.80;67.00;;;;;;5092312;28;20066;-78
2023/08/04 05:25:38;;;;;;;;;;;20.80;67.10;;;;;;5092374;28;20397;-73
2023/08/04 05:28:41;;;;;;;0.20;0.20;;;20.90;67.50;;;;;;5075175;28;20002;-78
2023/08/04 05:31:08;;;;;;;0.55;0.43;;;20.90;67.40;;;;;;5091774;28;20086;-78
2023/08/04 05:33:34;;;;;;;0.40;0.40;;;20.90;66.90;;;;;;5108424;28;20135;-73
2023/08/04 05:36:05;;;;;;;0.80;0.40;;;20.90;67.70;;;;;;5113365;28;20024;-73
2023/08/04 05:38:33;;;;;;;0.30;0.30;;;20.90;67.20;;;;;;5078489;28;20042;-78
2023/08/04 05:41:18;;;;;;;1.75;0.75;;;20.90;66.70;;;;;;5112989;28;20109;-78
2023/08/04 05:43:47;;;;;;;0.10;0.10;;;21.00;65.80;;;;;;5095350;28;20451;-74
2023/08/04 05:46:15;;;;;;;1.95;1.17;;;21.00;66.00;;;;;;5095370;28;20058;-80
2023/08/04 05:48:41;;;;;;;0.40;0.40;;;21.10;65.90;;;;;;5095332;28;20036;-73
2023/08/04 05:51:07;;;;;;;0.10;0.10;;;21.10;65.60;;;;;;5094878;28;20387;-78
2023/08/04 05:53:33;;;;;;;;;;;21.20;65.50;;;;;;5095897;28;20092;-73
2023/08/04 05:55:59;;;;;;;0.10;0.10;;;21.20;65.50;;;;;;5094982;28;19966;-74
2023/08/04 05:58:28;;;;;;;;;;;21.20;65.10;;;;;;5113860;28;20080;-78
2023/08/04 06:00:54;;;;;;;0.93;0.30;;;21.20;65.00;;;;;;5094577;28;19959;-80
2023/08/04 06:06:07;;;;;;;0.10;0.10;;;21.30;64.90;;;;;;5049949;28;19917;-73
2023/08/04 06:08:33;;;;;;;0.10;0.10;;;21.30;64.40;;;;;;5050247;28;20134;-73
2023/08/04 06:11:02;;;;;;;;;;;21.20;64.40;;;;;;5033794;28;20045;-79
2023/08/04 06:13:31;;;;;;;0.10;0.10;;;21.20;64.60;;;;;;5057628;28;19984;-73
2023/08/04 06:15:57;;;;;;;0.10;0.10;;;21.20;64.30;;;;;;5114625;27;20114;-72
2023/08/04 06:18:25;;;;;;;;;;;21.30;63.50;;;;;;5115852;28;20039;-72
2023/08/04 06:20:54;;;;;;;0.10;0.10;;;21.30;64.10;;;;;;5131853;28;19926;-72
2023/08/04 06:23:20;;;;;;;0.22;0.20;;;21.30;63.80;;;;;;5133517;28;20039;-77
2023/08/04 06:25:46;;;;;;;;;;;21.40;63.70;;;;;;5115388;28;20036;-76
2023/08/04 06:28:12;;;;;;;0.10;0.10;;;21.40;63.70;;;;;;5115122;28;19916;-79
2023/08/04 06:30:38;;;;;;;;;;;21.50;63.50;;;;;;5115550;28;20027;-73
2023/08/04 06:33:04;;;;;;;0.30;0.30;;;21.40;63.50;;;;;;5133555;28;19946;-78
2023/08/04 06:35:33;;;;;;;0.05;0.05;;;21.40;63.50;;;;;;5114875;28;20431;-73
2023/08/04 06:37:59;;;;;;;0.10;0.10;;;21.50;63.50;;;;;;5133519;28;20046;-72
2023/08/04 06:40:25;;;;;;;;;;;21.50;63.30;;;;;;5115362;28;20034;-72
2023/08/04 06:43:12;;;;;;;0.10;0.10;;;21.50;64.20;;;;;;5115243;28;20356;-75
2023/08/04 06:45:56;;;;;;;0.10;0.10;;;21.40;63.40;;;;;;5131750;28;20069;-77
2023/08/04 06:48:24;;;;;;;0.03;0.03;;;21.40;63.30;;;;;;5133432;28;20091;-78
2023/08/04 06:50:51;;;;;;;0.10;0.10;;;21.40;63.10;;;;;;5132944;28;20034;-79
2023/08/04 06:53:17;;;;;;;0.20;0.20;;;21.50;63.20;;;;;;5114942;28;20400;-72
2023/08/04 06:55:43;;;;;;;;;;;21.50;63.40;;;;;;5114844;28;20035;-79
2023/08/04 06:58:09;;;;;;;0.20;0.15;;;21.50;63.20;;;;;;5131926;28;19926;-73
2023/08/04 07:00:35;;;;;;;0.20;0.20;;;21.50;63.20;;;;;;5116041;27;20380;-73
2023/08/04 07:03:01;;;;;;;;;;;21.50;63.10;;;;;;5119321;27;20043;-72
2023/08/04 07:05:30;;;;;;;0.10;0.10;;;21.60;63.00;;;;;;5136830;27;19921;-73
2023/08/04 07:08:19;;;;;;;0.10;0.10;;;21.60;62.70;;;;;;5119086;27;20054;-77
2023/08/04 07:10:45;;;;;;;0.20;0.20;;;21.60;62.80;;;;;;5123427;27;20050;-73
2023/08/04 07:13:31;;;;;;;;;;;21.60;62.70;;;;;;5137542;27;20055;-73
2023/08/04 07:15:58;;;;;;;0.10;0.10;;;21.70;62.60;;;;;;5118121;27;19961;-73
2023/08/04 07:18:48;;;;;;;0.52;0.47;;;21.70;62.30;;;;;;5118678;27;20446;-72
2023/08/04 07:21:14;;;;;;;0.10;0.10;;;21.70;62.40;;;;;;5089293;27;20074;-73
2023/08/04 07:23:43;;;;;;;0.10;0.10;;;21.80;62.30;;;;;;5118590;27;20027;-77
2023/08/04 07:26:10;;;;;;;0.10;0.10;;;21.80;62.30;;;;;;5117870;27;20072;-72
2023/08/04 07:28:39;;;;;;;0.20;0.20;;;21.80;62.40;;;;;;5136782;27;20046;-73
2023/08/04 07:31:42;;;;;;;0.10;0.10;;;21.80;62.10;;;;;;5117962;27;20076;-78
2023/08/04 07:34:08;;;;;;;0.30;0.30;;;21.80;62.10;;;;;;5118454;27;20031;-73
2023/08/04 07:36:34;;;;;;;;;;;21.90;62.20;;;;;;5137166;27;20035;-78
2023/08/04 07:39:00;;;;;;;0.22;0.20;;;22.00;61.90;;;;;;5118092;27;19919;-73
2023/08/04 07:41:27;;;;;;;;;;;22.20;61.40;;;;;;5118411;27;20076;-78
2023/08/04 07:43:56;;;;;;;0.20;0.20;;;22.40;61.00;;;;;;5118146;27;19968;-76
2023/08/04 07:46:40;;;;;;;0.13;0.13;;;22.60;60.20;;;;;;5136447;27;20115;-78
2023/08/04 07:49:06;;;;;;;0.10;0.10;;;22.70;60.20;;;;;;5136376;27;20487;-72
2023/08/04 07:51:32;;;;;;;;;;;22.70;59.90;;;;;;5136518;27;20027;-73
2023/08/04 07:53:58;;;;;;;0.10;0.10;;;22.90;60.00;;;;;;5117680;27;19922;-81
2023/08/04 07:56:31;;;;;;;0.10;0.10;;;23.20;59.20;;;;;;5100368;27;20039;-77
2023/08/04 07:58:57;;;;;;;0.10;0.10;;;23.40;58.20;;;;;;5117967;27;20043;-79
2023/08/04 08:01:22;;;;;;;;;;;23.50;58.10;;;;;;5117903;27;20476;-79
2023/08/04 08:04:04;;;;;;;0.10;0.10;;;23.60;58.30;;;;;;5136462;27;19915;-77
2023/08/04 08:06:30;;;;;;;0.10;0.10;;;23.60;58.00;;;;;;5117302;27;20035;-78
2023/08/04 08:08:55;;;;;;;;;;;23.50;57.50;;;;;;5118381;27;20054;-79
2023/08/04 08:11:22;;;;;;;0.10;0.10;;;23.50;57.70;;;;;;5117193;27;19915;-78
2023/08/04 08:13:47;;;;;;;;;;;23.60;57.20;;;;;;5117818;27;20094;-79
2023/08/04 08:16:17;;;;;;;0.10;0.10;;;23.80;57.20;;;;;;5135526;27;20018;-78
2023/08/04 08:18:43;;;;;;;0.10;0.10;;;24.00;56.00;;;;;;5117618;27;20031;-80
2023/08/04 08:21:10;;;;;;;0.10;0.10;;;24.20;55.00;;;;;;5100202;27;20047;-81
2023/08/04 08:23:37;;;;;;;0.20;0.20;;;24.30;54.80;;;;;;5117420;27;20082;-72
2023/08/04 08:26:04;;;;;;;0.15;0.15;;;24.50;54.90;;;;;;5116902;27;20425;-74
2023/08/04 08:28:31;;;;;;;0.20;0.20;;;24.60;54.40;;;;;;5117338;27;20027;-78
2023/08/04 08:30:57;;;;;;;0.15;0.15;;;24.70;54.40;;;;;;5116906;27;20042;-73
2023/08/04 08:33:23;;;;;;;0.10;0.10;;;24.90;53.70;;;;;;5117101;27;20027;-73
2023/08/04 08:35:49;;;;;;;0.10;0.10;;;24.90;54.00;;;;;;5116625;27;20575;-74
2023/08/04 08:38:15;;;;;;;0.25;0.25;;;25.00;53.90;;;;;;5117098;27;20058;-79
2023/08/04 08:40:51;;;;;;;0.10;0.10;;;25.00;53.90;;;;;;5134739;27;20027;-73
2023/08/04 08:43:17;;;;;;;0.20;0.20;;;25.00;53.50;;;;;;5116871;27;20492;-74
2023/08/04 08:48:37;;;;;;;0.20;0.20;;;25.50;52.30;;;;;;5091960;28;20113;-75
2023/08/04 08:51:11;;;;;;;0.20;0.20;;;25.80;51.10;;;;;;5074470;28;20055;-79
2023/08/04 08:53:39;;;;;;;0.13;0.13;;;26.00;51.40;;;;;;5058008;28;20074;-74
2023/08/04 08:56:42;;;;;;;0.15;0.13;;;26.00;51.00;;;;;;5091242;28;20152;-74
2023/08/04 08:59:08;;;;;;;0.22;0.20;;;25.90;50.90;;;;;;5091501;28;20047;-74
2023/08/04 09:01:35;;;;;;;0.45;0.38;;;26.00;50.80;;;;;;5074050;28;20449;-79
2023/08/04 09:04:05;;;;;;;0.20;0.20;;;26.00;50.60;;;;;;5091516;28;20089;-73
2023/08/04 09:06:31;;;;;;;0.10;0.10;;;25.90;49.70;;;;;;5074190;28;20482;-75
2023/08/04 09:09:01;;;;;;;0.47;0.47;;;25.80;50.60;;;;;;5074370;28;20048;-74
2023/08/04 09:11:30;;;;;;;0.15;0.15;;;25.60;51.00;;;;;;5090977;28;20039;-74
2023/08/04 09:14:00;;;;;;;0.90;0.35;;;25.50;51.10;;;;;;5098418;27;20047;-73
2023/08/04 09:16:47;;;;;;;0.63;0.30;;;25.40;51.20;;;;;;5134378;27;20383;-75
2023/08/04 09:19:14;;;;;;;;;;;25.30;51.80;;;;;;5116760;27;20059;-75
2023/08/04 09:21:41;;;;;;;0.20;0.20;;;25.30;51.80;;;;;;5116015;27;19915;-81
2023/08/04 09:24:25;;;;;;;0.10;0.10;;;25.30;51.00;;;;;;5115449;27;20039;-75
2023/08/04 09:26:54;;;;;;;0.32;0.20;;;25.20;51.10;;;;;;5134125;27;20076;-73
2023/08/04 09:29:20;;;;;;;0.20;0.20;;;25.30;51.80;;;;;;5134216;27;20070;-77
2023/08/04 09:31:55;;;;;;;1.63;0.40;;;25.30;50.60;;;;;;5134012;27;20114;-74
2023/08/04 09:34:21;;;;;;;0.20;0.20;;;25.40;51.20;;;;;;5115822;27;20038;-75
2023/08/04 09:36:51;;;;;;;0.20;0.20;;;25.40;51.20;;;;;;5133926;27;20032;-75
2023/08/04 09:39:17;;;;;;;0.10;0.10;;;25.40;51.10;;;;;;5115823;27;20042;-80
2023/08/04 09:41:45;;;;;;;0.52;0.30;;;25.40;51.00;;;;;;5133751;27;20470;-80
2023/08/04 09:44:14;;;;;;;0.10;0.10;;;25.40;51.00;;;;;;5115740;27;20080;-75
2023/08/04 09:47:00;;;;;;;6.13;0.93;;;25.50;50.50;;;;;;5115596;27;20522;-81
2023/08/04 09:49:27;;;;;;;0.20;0.20;;;25.60;50.70;;;;;;5134397;27;20031;-75
2023/08/04 09:51:56;;;;;;;0.20;0.20;;;25.50;50.60;;;;;;5133732;27;20023;-74
2023/08/04 09:54:25;;;;;;;0.47;0.47;;;25.40;50.60;;;;;;5115838;27;20039;-75
2023/08/04 09:57:32;;;;;;;0.32;0.32;;;25.30;51.20;;;;;;5098072;27;20041;-81
2023/08/04 09:59:59;;;;;;;0.27;0.20;;;25.30;51.40;;;;;;5134432;27;20031;-80
2023/08/04 10:02:25;;;;;;;0.63;0.52;;;25.30;51.50;;;;;;5132097;27;20403;-79
2023/08/04 10:04:52;;;;;;;0.20;0.20;;;25.30;50.90;;;;;;5115401;28;20035;-78
2023/08/04 10:07:21;;;;;;;0.30;0.25;;;25.40;51.20;;;;;;5097895;27;20107;-74
2023/08/04 10:09:48;;;;;;;0.13;0.13;;;25.40;51.20;;;;;;5134263;27;20027;-74
2023/08/04 10:12:16;;;;;;;0.45;0.45;;;25.40;50.80;;;;;;5115092;27;20034;-73
2023/08/04 10:14:43;;;;;;;0.17;0.17;;;25.40;50.80;;;;;;5133796;27;20074;-79
2023/08/04 10:17:10;;;;;;;0.32;0.32;;;25.40;50.60;;;;;;5114950;27;20028;-72
2023/08/04 10:19:36;;;;;;;0.20;0.20;;;25.60;50.30;;;;;;5098538;27;20050;-74
2023/08/04 10:22:22;;;;;;;0.13;0.13;;;25.80;50.00;;;;;;5133213;27;20036;-80
2023/08/04 10:24:48;;;;;;;0.28;0.28;;;26.00;50.10;;;;;;5115303;28;20031;-73
2023/08/04 10:27:34;;;;;;;3.80;0.22;;;26.00;50.00;;;;;;5133479;28;20069;-72
2023/08/04 10:30:19;;;;;;;0.30;0.30;;;25.80;50.00;;;;;;5115342;28;20515;-79
2023/08/04 10:32:47;;;;;;;0.20;0.20;;;25.60;50.40;;;;;;5098440;28;20027;-72
2023/08/04 10:35:32;;;;;;;0.20;0.20;;;25.40;50.50;;;;;;5134160;27;20564;-78
2023/08/04 10:38:00;;;;;;;0.40;0.40;;;25.20;51.20;;;;;;5119683;27;20031;-79
2023/08/04 10:40:30;;;;;;;0.20;0.20;;;25.10;50.90;;;;;;5119000;27;20039;-74
2023/08/04 10:42:58;;;;;;;0.32;0.20;;;25.00;51.80;;;;;;5119278;27;20028;-78
2023/08/04 10:45:24;;;;;;;0.85;0.65;;;24.90;52.20;;;;;;5118399;27;20043;-72
2023/08/04 10:48:14;;;;;;;0.30;0.30;;;24.80;52.50;;;;;;5118696;27;20050;-74
2023/08/04 10:50:40;;;;;;;0.10;0.10;;;24.50;53.20;;;;;;5118693;27;20088;-80
2023/08/04 10:53:06;;;;;;;0.80;0.77;;;24.30;54.60;;;;;;5119238;27;20024;-82
2023/08/04 10:55:34;;;;;;;0.20;0.20;;;24.10;55.40;;;;;;5118675;27;20027;-79
2023/08/04 10:58:00;;;;;;;0.10;0.10;;;23.90;56.10;;;;;;5119307;27;20118;-73
2023/08/04 11:00:26;;;;;;;;;;;23.80;56.30;;;;;;5119246;27;20265;-79
2023/08/04 11:02:52;;;;;;;1.00;0.47;;;23.70;56.40;;;;;;5137439;27;19963;-81
2023/08/04 11:05:23;;;;;;;0.30;0.30;;;23.50;57.30;;;;;;5118721;27;20534;-73
2023/08/04 11:07:49;;;;;;;0.13;0.13;;;23.20;58.00;;;;;;5118692;27;20038;-72
2023/08/04 11:10:16;;;;;;;0.43;0.15;;;23.20;58.40;;;;;;5136799;27;20034;-74
2023/08/04 11:12:42;;;;;;;0.20;0.20;;;23.10;60.90;;;;;;5137369;27;20035;-73
2023/08/04 11:15:26;;;;;;;0.30;0.30;;;22.70;62.80;;;;;;5118670;27;20031;-72
2023/08/04 11:20:40;;;;;;;0.30;0.30;;;22.40;64.20;;;;;;5120432;27;20049;-72
2023/08/04 11:23:10;;;;;;;0.65;0.40;;;22.40;64.30;;;;;;5101369;27;20035;-80
2023/08/04 11:25:42;;;;;;;0.32;0.20;;;22.30;64.20;;;;;;5118404;27;20055;-72
2023/08/04 11:28:08;;;;;;;0.50;0.38;;;22.30;64.70;;;;;;5136940;27;20035;-81
2023/08/04 11:31:13;;;;;;;0.20;0.20;;;22.20;64.70;;;;;;5136453;27;20035;-76
2023/08/04 11:33:46;;;;;;;1.45;0.43;;;22.10;64.40;;;;;;5118690;27;20039;-83
2023/08/04 11:36:12;;;;;;;0.73;0.32;;;22.00;64.50;;;;;;5118053;27;20038;-82
2023/08/04 11:38:38;;;;;;;0.20;0.20;;;21.90;65.20;;;;;;5136860;27;20027;-76
2023/08/04 11:41:09;;;;;;;0.10;0.10;;;21.90;65.30;;;;;;5117959;27;20054;-82
2023/08/04 11:43:36;;;;;;;0.20;0.20;;;21.90;65.50;;;;;;5101631;28;20089;-76
2023/08/04 11:46:06;;;;;;;0.10;0.10;;;21.90;64.80;;;;;;5096106;28;20035;-81
2023/08/04 11:48:53;;;;;;;1.25;0.95;;;22.00;65.30;;;;;;5080990;28;20046;-80
2023/08/04 11:51:21;;;;;;;0.10;0.10;;;21.80;66.40;;;;;;5115366;28;20043;-75
2023/08/04 11:53:47;;;;;;;0.95;0.40;;;21.70;67.30;;;;;;5097553;28;20058;-79
2023/08/04 11:56:13;;;;;;;0.10;0.10;;;21.70;67.10;;;;;;5096814;28;20480;-81
2023/08/04 11:58:40;;;;;;;0.17;0.17;;;21.70;66.30;;;;;;5097421;28;20572;-79
2023/08/04 12:01:26;;;;;;;0.10;0.10;;;21.70;66.40;;;;;;5096962;28;20115;-77
2023/08/04 12:03:52;;;;;;;0.10;0.10;;;21.80;66.40;;;;;;5097074;28;20028;-81
2023/08/04 12:06:37;;;;;;;0.20;0.20;;;22.00;65.60;;;;;;5096486;28;20546;-76
2023/08/04 12:09:03;;;;;;;0.10;0.10;;;22.30;64.90;;;;;;5097020;28;20031;-81
2023/08/04 12:11:30;;;;;;;1.30;0.82;;;22.40;64.50;;;;;;5096306;28;20027;-77
2023/08/04 12:14:15;;;;;;;0.20;0.20;;;22.40;64.60;;;;;;5096767;28;20515;-81
2023/08/04 12:17:02;;;;;;;0.35;0.20;;;22.30;64.90;;;;;;5096676;28;20464;-81
2023/08/04 12:19:30;;;;;;;0.10;0.10;;;22.20;64.80;;;;;;5097010;28;20503;-76
2023/08/04 12:22:00;;;;;;;1.77;0.63;;;22.10;65.00;;;;;;5079521;28;20035;-77
2023/08/04 12:24:28;;;;;;;0.20;0.20;;;22.00;65.30;;;;;;5079876;28;20028;-84
2023/08/04 12:26:54;;;;;;;0.17;0.17;;;21.90;65.60;;;;;;5079050;28;20063;-75
2023/08/04 12:29:36;;;;;;;0.17;0.17;;;21.90;65.20;;;;;;5096814;28;20384;-80
2023/08/04 12:32:23;;;;;;;0.10;0.10;;;21.90;65.40;;;;;;5079888;27;20435;-75
2023/08/04 12:35:09;;;;;;;0.10;0.10;;;21.80;66.50;;;;;;5133665;27;20039;-75
2023/08/04 12:37:41;;;;;;;0.10;0.10;;;21.70;66.60;;;;;;5134952;27;20058;-79
2023/08/04 12:40:08;;;;;;;0.10;0.10;;;21.60;66.80;;;;;;5116768;27;20027;-81
2023/08/04 12:42:35;;;;;;;0.55;0.28;;;21.50;66.80;;;;;;5116606;27;20031;-78
2023/08/04 12:45:01;;;;;;;0.10;0.10;;;21.50;67.30;;;;;;5116909;27;20027;-78
2023/08/04 12:47:30;;;;;;;0.10;0.10;;;21.40;67.20;;;;;;5082022;28;20035;-82
2023/08/04 12:49:56;;;;;;;0.20;0.20;;;21.40;66.80;;;;;;5129032;27;20082;-81
2023/08/04 12:52:22;;;;;;;;;;;21.50;67.20;;;;;;5116387;27;20040;-80
2023/08/04 12:54:48;;;;;;;0.10;0.10;;;21.50;66.90;;;;;;5116069;27;20288;-80
2023/08/04 12:57:14;;;;;;;;;;;21.60;66.80;;;;;;5115329;28;20039;-78
2023/08/04 12:59:40;;;;;;;0.10;0.10;;;21.60;66.60;;;;;;5116369;27;19922;-74
2023/08/04 13:02:06;;;;;;;;;;;21.50;67.20;;;;;;5134533;27;20046;-75
2023/08/04 13:04:33;;;;;;;0.70;0.40;;;21.50;67.10;;;;;;5116061;27;19916;-81
2023/08/04 13:07:01;;;;;;;0.20;0.20;;;21.50;67.50;;;;;;5134375;27;20110;-81
2023/08/04 13:09:27;;;;;;;0.10;0.10;;;21.40;67.00;;;;;;5116344;27;20062;-76
2023/08/04 13:11:53;;;;;;;0.10;0.10;;;21.50;67.10;;;;;;5134308;27;20066;-83
2023/08/04 13:14:19;;;;;;;;;;;21.50;67.50;;;;;;5116472;27;20054;-76
2023/08/04 13:16:46;;;;;;;0.10;0.10;;;21.60;67.10;;;;;;5116121;27;20355;-76
2023/08/04 13:19:12;;;;;;;0.20;0.20;;;21.70;66.70;;;;;;5134682;27;20031;-75
2023/08/04 13:21:38;;;;;;;;;;;21.90;66.40;;;;;;5134556;27;20027;-83
2023/08/04 13:24:09;;;;;;;0.10;0.10;;;22.30;65.20;;;;;;5116066;27;19929;-82
2023/08/04 13:26:35;;;;;;;0.10;0.10;;;23.70;60.40;;;;;;5115937;27;20041;-80